Air Quality Table

TIMESTAMP NO2 O3 PM2.5 TEMP HUM AIRPRES WS WD NO
2022-08-08 17:00 9.13 µg/m3 108.3 µg/m3 12.64 µg/m3 31.21 °C N/A 999.45 mbar 2.04 m/s 243.75 Deg 0.95 µg/m3
2022-08-08 16:00 10.54 µg/m3 113.39 µg/m3 13.09 µg/m3 31.99 °C N/A 999.21 mbar 1.64 m/s 181.4 Deg 1.52 µg/m3
2022-08-08 15:00 7.55 µg/m3 110.18 µg/m3 15.02 µg/m3 31.58 °C N/A 999.37 mbar 1.77 m/s 267.25 Deg 1.06 µg/m3
2022-08-08 14:00 10.16 µg/m3 107.73 µg/m3 15.02 µg/m3 31.2 °C N/A 999.86 mbar 2.19 m/s 271.55 Deg 6.14 µg/m3
2022-08-08 13:00 10.21 µg/m3 114.86 µg/m3 11.82 µg/m3 31.48 °C N/A 999.82 mbar 2.22 m/s 233.85 Deg 2.58 µg/m3
2022-08-08 12:00 7.84 µg/m3 100.32 µg/m3 11.01 µg/m3 31.38 °C N/A 1,000.04 mbar 2.37 m/s 213.05 Deg 1.17 µg/m3
2022-08-08 11:00 10.4 µg/m3 96.29 µg/m3 12.28 µg/m3 31.1 °C N/A 1,000.10 mbar 2.69 m/s 251.17 Deg 1.87 µg/m3
2022-08-08 10:00 13.29 µg/m3 83.38 µg/m3 15.36 µg/m3 31 °C N/A 1,000.03 mbar 2.12 m/s 289.05 Deg 1.72 µg/m3
2022-08-08 09:00 25.47 µg/m3 66.33 µg/m3 19.82 µg/m3 30.64 °C N/A 999.73 mbar 1.68 m/s 196.28 Deg 4.71 µg/m3
2022-08-08 08:00 44.67 µg/m3 19.75 µg/m3 23.05 µg/m3 28.71 °C N/A 999.51 mbar 0.85 m/s 182.09 Deg 27.4 µg/m3
2022-08-08 07:00 51.84 µg/m3 6.13 µg/m3 16.97 µg/m3 26.61 °C N/A 999.12 mbar 0.59 m/s 197.39 Deg 46.83 µg/m3
2022-08-08 06:00 46.42 µg/m3 2.89 µg/m3 11.48 µg/m3 24.99 °C N/A 998.82 mbar 0.51 m/s 261.29 Deg 26.18 µg/m3
2022-08-08 05:00 33.62 µg/m3 11.49 µg/m3 9.44 µg/m3 24.62 °C N/A 998.42 mbar 0.39 m/s 140.71 Deg 0.86 µg/m3
2022-08-08 04:00 22.83 µg/m3 21.58 µg/m3 7.98 µg/m3 25.35 °C N/A 998.12 mbar 0.45 m/s 277.85 Deg 1.11 µg/m3
2022-08-08 03:00 12.79 µg/m3 33.58 µg/m3 7.78 µg/m3 25.71 °C N/A 998.18 mbar 0.38 m/s 81.64 Deg 0.58 µg/m3
2022-08-08 02:00 5.81 µg/m3 40.44 µg/m3 7.02 µg/m3 25.77 °C N/A 998.28 mbar 0.45 m/s 247.16 Deg 0.2 µg/m3
2022-08-08 01:00 3.49 µg/m3 56.02 µg/m3 6.94 µg/m3 26.49 °C N/A 998.50 mbar 0.4 m/s 327.55 Deg 0.23 µg/m3
2022-08-08 00:00 2.16 µg/m3 60.33 µg/m3 7.38 µg/m3 26.64 °C N/A 998.80 mbar 0.64 m/s 327.75 Deg 0.09 µg/m3
2022-08-07 23:00 5.32 µg/m3 62.71 µg/m3 9.93 µg/m3 26.96 °C N/A 998.88 mbar 0.65 m/s 334.23 Deg 0.18 µg/m3
2022-08-07 22:00 4.27 µg/m3 68.5 µg/m3 8.7 µg/m3 27.2 °C N/A 998.87 mbar 0.75 m/s 310.14 Deg 0.22 µg/m3
2022-08-07 21:00 5.78 µg/m3 72.74 µg/m3 7.89 µg/m3 27.95 °C N/A 998.71 mbar 0.6 m/s 327.14 Deg 0.2 µg/m3
2022-08-07 20:00 6.64 µg/m3 85.14 µg/m3 7.59 µg/m3 28.23 °C N/A 998.21 mbar 1.22 m/s 182.12 Deg 0.21 µg/m3
2022-08-07 19:00 6.29 µg/m3 94.4 µg/m3 7.06 µg/m3 29.02 °C N/A 997.71 mbar 1.94 m/s 91.93 Deg 0.34 µg/m3
2022-08-07 18:00 2.91 µg/m3 100.94 µg/m3 6.34 µg/m3 30.95 °C N/A 997.23 mbar 1.41 m/s 326.66 Deg 0.36 µg/m3
2022-08-07 17:00 2.55 µg/m3 114.98 µg/m3 6.85 µg/m3 32.02 °C N/A 997.39 mbar 1.24 m/s 327.53 Deg 0.3 µg/m3
2022-08-07 16:00 3.34 µg/m3 114.52 µg/m3 6.51 µg/m3 32.12 °C N/A 997.42 mbar 1.82 m/s 100.47 Deg 0.15 µg/m3
2022-08-07 15:00 2.76 µg/m3 115.82 µg/m3 6.57 µg/m3 32.64 °C N/A 997.59 mbar 1.34 m/s 189.79 Deg 0.37 µg/m3
2022-08-07 14:00 3.24 µg/m3 111.69 µg/m3 6.21 µg/m3 32.52 °C N/A 997.93 mbar 1.87 m/s 177.3 Deg 0.22 µg/m3
2022-08-07 13:00 3.2 µg/m3 105.84 µg/m3 7.15 µg/m3 32.67 °C N/A 998.36 mbar 1.55 m/s 102.68 Deg 0.37 µg/m3
2022-08-07 12:00 3.58 µg/m3 100.94 µg/m3 6.87 µg/m3 32.17 °C N/A 998.81 mbar 1.52 m/s 92.21 Deg 0.53 µg/m3
2022-08-07 11:00 4.52 µg/m3 97.8 µg/m3 6.66 µg/m3 31.56 °C N/A 999.11 mbar 1.69 m/s 190.58 Deg 0.79 µg/m3
2022-08-07 10:00 6.22 µg/m3 88.93 µg/m3 6.21 µg/m3 30.92 °C N/A 999.21 mbar 1.32 m/s 330.38 Deg 1.07 µg/m3
2022-08-07 09:00 5.4 µg/m3 81.33 µg/m3 6.38 µg/m3 29.38 °C N/A 998.99 mbar 1.27 m/s 88.23 Deg 0.9 µg/m3
2022-08-07 08:00 4.9 µg/m3 79.06 µg/m3 7.13 µg/m3 28.18 °C N/A 998.76 mbar 1.67 m/s 26.38 Deg 0.57 µg/m3
2022-08-07 07:00 7.73 µg/m3 65.08 µg/m3 7.15 µg/m3 27.08 °C N/A 998.45 mbar 1.04 m/s 97.44 Deg 0.45 µg/m3
2022-08-07 06:00 8.93 µg/m3 56.87 µg/m3 7.66 µg/m3 25.82 °C N/A 998.15 mbar 0.63 m/s 328.94 Deg 0.15 µg/m3
2022-08-07 05:00 13.47 µg/m3 52.13 µg/m3 6.32 µg/m3 25.26 °C N/A 997.99 mbar 0.67 m/s 287.06 Deg 0.22 µg/m3
2022-08-07 04:00 7.24 µg/m3 66.62 µg/m3 4.79 µg/m3 25.97 °C N/A 997.93 mbar 0.52 m/s 312.47 Deg 0.23 µg/m3
2022-08-07 03:00 6.89 µg/m3 77.41 µg/m3 5.09 µg/m3 26.58 °C N/A 998.02 mbar 0.84 m/s 335.32 Deg 0.71 µg/m3
2022-08-07 02:00 2.04 µg/m3 79.73 µg/m3 5.81 µg/m3 26.93 °C N/A 998.41 mbar 0.86 m/s 327.51 Deg 0.29 µg/m3
2022-08-07 01:00 2.47 µg/m3 69.65 µg/m3 6.43 µg/m3 26.91 °C N/A 998.94 mbar 1.25 m/s 299.46 Deg 0.29 µg/m3
2022-08-07 00:00 3.26 µg/m3 67.64 µg/m3 6.19 µg/m3 26.95 °C N/A 999.56 mbar 1.16 m/s 317.34 Deg 0.27 µg/m3
2022-08-06 23:00 2.24 µg/m3 67.88 µg/m3 6.32 µg/m3 27.24 °C N/A 999.84 mbar 1.26 m/s 313.44 Deg 0.23 µg/m3
2022-08-06 22:00 2.27 µg/m3 68.41 µg/m3 5.32 µg/m3 27.4 °C N/A 999.97 mbar 0.93 m/s 312.85 Deg 0.23 µg/m3
2022-08-06 21:00 4.01 µg/m3 67.87 µg/m3 5.92 µg/m3 27.72 °C N/A 999.92 mbar 0.85 m/s 330.17 Deg 0.15 µg/m3
2022-08-06 20:00 2.14 µg/m3 69.94 µg/m3 6.11 µg/m3 28.21 °C N/A 999.63 mbar 1.2 m/s 324.42 Deg 0.31 µg/m3
2022-08-06 19:00 1.16 µg/m3 71.42 µg/m3 6.64 µg/m3 29.07 °C N/A 999.36 mbar 1.36 m/s 321.92 Deg 0.24 µg/m3

It is to be noted that the data is provisional and subject to quality assurance procedures. For validated data kindly refer your request to contact.air@era.org.mt